createdAt,value
2023-01-13T00:02:00.497Z,95846.06
2023-01-13T00:04:28.054Z,95832.97
2023-01-13T00:06:56.811Z,95828.63
2023-01-13T00:09:24.093Z,95827.72
2023-01-13T00:11:51.447Z,95836.78
2023-01-13T00:14:18.630Z,95838.78
2023-01-13T00:16:45.950Z,95830.31
2023-01-13T00:19:13.151Z,95819.66
2023-01-13T00:21:40.269Z,95825.31
2023-01-13T00:24:11.210Z,95820.28
2023-01-13T00:26:38.391Z,95816.84
2023-01-13T00:29:05.490Z,95820.41
2023-01-13T00:31:32.783Z,95818.22
2023-01-13T00:34:01.654Z,95815.81
2023-01-13T00:36:30.251Z,95807.75
2023-01-13T00:38:58.174Z,95797.28
2023-01-13T00:41:28.086Z,95790.50
2023-01-13T00:43:55.216Z,95792.72
2023-01-13T00:46:22.745Z,95783.50
2023-01-13T00:48:49.912Z,95785.09
2023-01-13T00:51:20.107Z,95784.94
2023-01-13T00:53:50.040Z,95789.16
2023-01-13T00:56:30.391Z,95771.84
2023-01-13T00:59:07.057Z,95774.72
2023-01-13T01:01:34.458Z,95772.72
2023-01-13T01:04:01.710Z,95783.19
2023-01-13T01:06:29.005Z,95774.34
2023-01-13T01:08:56.727Z,95780.44
2023-01-13T01:11:26.743Z,95768.72
2023-01-13T01:13:56.730Z,95772.38
2023-01-13T01:16:29.576Z,95776.00
2023-01-13T01:18:57.775Z,95767.97
2023-01-13T01:21:27.101Z,95775.19
2023-01-13T01:23:55.271Z,95785.31
2023-01-13T01:26:24.217Z,95778.22
2023-01-13T01:28:52.175Z,95780.22
2023-01-13T01:31:21.881Z,95769.75
2023-01-13T01:33:51.451Z,95777.03
2023-01-13T01:36:21.538Z,95775.44
2023-01-13T01:38:49.447Z,95795.59
2023-01-13T01:41:19.354Z,95782.19
2023-01-13T01:43:52.871Z,95776.28
2023-01-13T01:46:20.125Z,95787.75
2023-01-13T01:48:47.396Z,95788.53
2023-01-13T01:51:16.626Z,95793.56
2023-01-13T01:53:44.511Z,95782.97
2023-01-13T01:56:11.854Z,95787.94
2023-01-13T01:58:46.355Z,95785.72
2023-01-13T02:01:14.299Z,95775.59
2023-01-13T02:03:47.217Z,95775.72
2023-01-13T02:06:17.016Z,95776.09
2023-01-13T02:08:44.614Z,95760.00
2023-01-13T02:11:27.427Z,95754.97
2023-01-13T02:13:54.881Z,95744.28
2023-01-13T02:16:24.359Z,95740.03
2023-01-13T02:19:05.988Z,95741.88
2023-01-13T02:22:09.675Z,95750.53
2023-01-13T02:25:11.530Z,95746.66
2023-01-13T02:27:57.471Z,95736.59
2023-01-13T02:30:38.534Z,95732.75
2023-01-13T02:33:25.311Z,95729.72
2023-01-13T02:36:01.667Z,95722.25
2023-01-13T02:38:34.673Z,95719.41
2023-01-13T02:41:10.991Z,95724.28
2023-01-13T02:43:41.710Z,95710.34
2023-01-13T02:46:17.798Z,95718.22
2023-01-13T02:48:50.730Z,95717.59
2023-01-13T02:51:24.351Z,95714.41
2023-01-13T02:53:58.171Z,95711.53
2023-01-13T02:56:27.890Z,95709.97
2023-01-13T02:58:58.036Z,95711.59
2023-01-13T03:01:26.822Z,95707.53
2023-01-13T03:03:54.105Z,95714.41
2023-01-13T03:06:44.385Z,95709.13
2023-01-13T03:09:19.541Z,95709.72
2023-01-13T03:12:00.297Z,95706.31
2023-01-13T03:14:40.547Z,95704.91
2023-01-13T03:17:21.923Z,95702.06
2023-01-13T03:20:02.421Z,95714.38
2023-01-13T03:22:38.104Z,95718.81
2023-01-13T03:25:16.243Z,95714.38
2023-01-13T03:27:51.826Z,95710.16
2023-01-13T03:30:26.772Z,95709.72
2023-01-13T03:33:03.430Z,95719.25
2023-01-13T03:35:36.845Z,95702.66
2023-01-13T03:38:10.951Z,95711.59
2023-01-13T03:40:46.143Z,95706.72
2023-01-13T03:43:21.051Z,95713.78
2023-01-13T03:45:56.478Z,95720.47
2023-01-13T03:48:31.545Z,95722.66
2023-01-13T03:51:06.501Z,95723.69
2023-01-13T03:53:40.288Z,95718.03
2023-01-13T03:56:15.944Z,95728.31
2023-01-13T03:58:49.384Z,95729.53
2023-01-13T04:01:21.980Z,95731.53
2023-01-13T04:03:59.825Z,95731.16
2023-01-13T04:06:47.613Z,95737.00
2023-01-13T04:09:24.381Z,95736.19
2023-01-13T04:12:00.747Z,95735.78
2023-01-13T04:14:29.665Z,95741.44
2023-01-13T04:16:57.506Z,95748.31
2023-01-13T04:19:26.107Z,95747.50
2023-01-13T04:21:53.604Z,95742.66
2023-01-13T04:24:20.728Z,95745.09
2023-01-13T04:26:47.790Z,95756.41
2023-01-13T04:29:15.799Z,95753.75
2023-01-13T04:31:43.107Z,95758.81
2023-01-13T04:34:11.342Z,95756.78
2023-01-13T04:36:40.005Z,95747.91
2023-01-13T04:39:07.143Z,95760.41
2023-01-13T04:41:34.289Z,95752.56
2023-01-13T04:44:01.324Z,95745.28
2023-01-13T04:46:28.476Z,95762.84
2023-01-13T04:48:55.663Z,95761.03
2023-01-13T04:51:22.726Z,95759.50
2023-01-13T04:53:51.308Z,95774.06
2023-01-13T04:56:18.426Z,95761.41
2023-01-13T04:58:45.486Z,95764.22
2023-01-13T05:01:12.723Z,95764.25
2023-01-13T05:03:39.966Z,95770.69
2023-01-13T05:06:07.525Z,95770.91
2023-01-13T05:08:34.625Z,95775.13
2023-01-13T05:11:03.308Z,95770.09
2023-01-13T05:13:30.489Z,95762.63
2023-01-13T05:16:00.600Z,95774.94
2023-01-13T05:18:30.964Z,95771.50
2023-01-13T05:20:58.138Z,95765.66
2023-01-13T05:23:25.205Z,95776.53
2023-01-13T05:25:52.545Z,95778.16
2023-01-13T05:28:21.226Z,95781.19
2023-01-13T05:30:48.696Z,95779.94
2023-01-13T05:33:18.127Z,95776.47
2023-01-13T05:35:47.240Z,95779.72
2023-01-13T05:38:15.366Z,95772.00
2023-01-13T05:40:43.126Z,95770.19
2023-01-13T05:43:12.287Z,95764.97
2023-01-13T05:45:40.804Z,95766.84
2023-01-13T05:48:08.019Z,95762.75
2023-01-13T05:50:35.192Z,95764.81
2023-01-13T05:53:02.405Z,95760.16
2023-01-13T05:55:29.565Z,95764.97
2023-01-13T05:57:56.665Z,95767.38
2023-01-13T06:00:24.484Z,95766.81
2023-01-13T06:02:53.535Z,95764.63
2023-01-13T06:05:20.666Z,95772.81
2023-01-13T06:07:47.773Z,95769.78
2023-01-13T06:10:14.949Z,95768.16
2023-01-13T06:12:42.165Z,95759.97
2023-01-13T06:15:10.488Z,95757.47
2023-01-13T06:17:37.662Z,95760.31
2023-01-13T06:20:07.208Z,95756.28
2023-01-13T06:22:39.566Z,95752.84
2023-01-13T06:25:16.151Z,95751.41
2023-01-13T06:27:43.846Z,95755.03
2023-01-13T06:30:12.376Z,95756.84
2023-01-13T06:32:46.003Z,95764.09
2023-01-13T06:35:22.767Z,95766.28
2023-01-13T06:37:55.391Z,95761.09
2023-01-13T06:40:23.691Z,95757.66
2023-01-13T06:42:55.047Z,95762.09
2023-01-13T06:45:24.167Z,95757.41
2023-01-13T06:47:51.267Z,95775.34
2023-01-13T06:50:19.846Z,95783.06
2023-01-13T06:52:47.129Z,95774.75
2023-01-13T06:55:14.428Z,95781.81
2023-01-13T06:57:49.966Z,95782.22
2023-01-13T07:00:18.232Z,95793.50
2023-01-13T07:02:46.008Z,95794.81
2023-01-13T07:05:14.069Z,95799.06
2023-01-13T07:07:42.993Z,95799.72
2023-01-13T07:10:13.123Z,95804.34
2023-01-13T07:12:41.407Z,95806.00
2023-01-13T07:15:09.803Z,95805.44
2023-01-13T07:17:36.947Z,95811.94
2023-01-13T07:20:04.787Z,95818.25
2023-01-13T07:22:32.007Z,95828.97
2023-01-13T07:25:00.652Z,95825.56
2023-01-13T07:27:27.866Z,95836.22
2023-01-13T07:29:55.031Z,95822.94
2023-01-13T07:32:22.253Z,95829.53
2023-01-13T07:34:49.428Z,95828.91
2023-01-13T07:37:16.608Z,95827.06
2023-01-13T07:39:43.686Z,95830.19
2023-01-13T07:42:12.250Z,95833.19
2023-01-13T07:44:39.551Z,95835.56
2023-01-13T07:47:06.787Z,95832.16
2023-01-13T07:49:34.011Z,95835.22
2023-01-13T07:52:01.145Z,95836.28
2023-01-13T07:54:39.583Z,95841.28
2023-01-13T07:57:07.745Z,95855.19
2023-01-13T07:59:36.466Z,95845.72
2023-01-13T08:02:03.792Z,95856.63
2023-01-13T08:04:31.142Z,95859.19
2023-01-13T08:06:58.435Z,95849.97
2023-01-13T08:09:25.555Z,95847.41
2023-01-13T08:11:54.686Z,95840.50
2023-01-13T08:14:21.911Z,95851.00
2023-01-13T08:16:50.427Z,95860.88
2023-01-13T08:19:17.626Z,95849.00
2023-01-13T08:21:44.891Z,95852.00
2023-01-13T08:24:12.212Z,95851.38
2023-01-13T08:26:39.428Z,95849.19
2023-01-13T08:29:06.571Z,95843.75
2023-01-13T08:31:33.708Z,95849.03
2023-01-13T08:34:02.411Z,95854.25
2023-01-13T08:36:29.687Z,95861.94
2023-01-13T08:38:56.965Z,95869.19
2023-01-13T08:41:24.152Z,95872.00
2023-01-13T08:43:53.982Z,95877.63
2023-01-13T08:46:21.223Z,95871.38
2023-01-13T08:48:48.466Z,95883.47
2023-01-13T08:51:17.039Z,95889.31
2023-01-13T08:53:44.110Z,95894.53
2023-01-13T08:56:11.388Z,95898.44
2023-01-13T08:58:38.747Z,95904.81
2023-01-13T09:01:06.698Z,95910.88
2023-01-13T09:03:34.206Z,95911.97
2023-01-13T09:06:01.392Z,95911.34
2023-01-13T09:08:30.052Z,95920.22
2023-01-13T09:10:57.908Z,95918.63
2023-01-13T09:13:25.605Z,95925.47
2023-01-13T09:15:52.925Z,95938.59
2023-01-13T09:18:20.107Z,95931.53
2023-01-13T09:20:47.318Z,95934.41
2023-01-13T09:23:14.508Z,95929.63
2023-01-13T09:25:43.111Z,95935.41
2023-01-13T09:28:10.284Z,95933.06
2023-01-13T09:30:37.948Z,95930.84
2023-01-13T09:33:05.336Z,95929.00
2023-01-13T09:35:32.449Z,95910.47
2023-01-13T09:37:59.551Z,95918.03
2023-01-13T09:40:27.050Z,95925.03
2023-01-13T09:43:02.846Z,95918.09
2023-01-13T09:45:38.096Z,95940.28
2023-01-13T09:48:13.828Z,95942.50
2023-01-13T09:50:52.989Z,95936.22
2023-01-13T09:53:26.420Z,95938.78
2023-01-13T09:55:54.986Z,95944.94
2023-01-13T09:58:23.870Z,95943.28
2023-01-13T10:01:06.697Z,95930.41
2023-01-13T10:03:36.238Z,95929.53
2023-01-13T10:06:13.529Z,95928.31
2023-01-13T10:08:44.130Z,95932.22
2023-01-13T10:11:20.109Z,95927.13
2023-01-13T10:13:52.490Z,95925.16
2023-01-13T10:16:32.631Z,95928.00
2023-01-13T10:19:06.663Z,95941.31
2023-01-13T10:22:09.265Z,95937.72
2023-01-13T10:25:07.714Z,95932.97
2023-01-13T10:27:36.737Z,95926.34
2023-01-13T10:30:20.799Z,95922.53
2023-01-13T10:32:55.611Z,95911.91
2023-01-13T10:35:51.212Z,95920.78
2023-01-13T10:38:20.711Z,95913.13
2023-01-13T10:40:50.440Z,95914.72
2023-01-13T10:43:17.701Z,95917.28
2023-01-13T10:45:57.114Z,95914.13
2023-01-13T10:48:38.253Z,95914.69
2023-01-13T10:51:20.707Z,95914.22
2023-01-13T10:54:00.648Z,95919.25
2023-01-13T10:56:31.200Z,95892.38
2023-01-13T10:59:17.544Z,95884.84
2023-01-13T11:01:59.813Z,95882.63
2023-01-13T11:04:31.075Z,95885.63
2023-01-13T11:06:58.824Z,95877.19
2023-01-13T11:09:29.590Z,95873.19
2023-01-13T11:11:58.090Z,95871.41
2023-01-13T11:14:36.478Z,95875.13
2023-01-13T11:17:14.729Z,95884.16
2023-01-13T11:19:50.917Z,95876.03
2023-01-13T11:22:27.130Z,95876.06
2023-01-13T11:25:00.057Z,95882.97
2023-01-13T11:27:42.753Z,95882.56
2023-01-13T11:30:26.221Z,95880.16
2023-01-13T11:33:06.009Z,95876.28
2023-01-13T11:35:41.133Z,95867.78
2023-01-13T11:38:14.975Z,95868.69
2023-01-13T11:40:47.289Z,95877.06
2023-01-13T11:43:31.702Z,95879.13
2023-01-13T11:46:01.597Z,95877.78
2023-01-13T11:48:36.045Z,95885.91
2023-01-13T11:51:16.864Z,95889.78
2023-01-13T11:54:00.812Z,95890.03
2023-01-13T11:56:58.911Z,95883.13
2023-01-13T12:00:00.937Z,95885.44
2023-01-13T12:02:51.737Z,95880.25
2023-01-13T12:05:34.517Z,95893.63
2023-01-13T12:08:18.787Z,95907.09
2023-01-13T12:11:01.595Z,95903.06
2023-01-13T12:13:40.432Z,95895.81
2023-01-13T12:16:21.505Z,95899.41
2023-01-13T12:19:27.165Z,95900.22
2023-01-13T12:22:11.847Z,95894.56
2023-01-13T12:24:49.701Z,95900.13
2023-01-13T12:27:29.581Z,95896.09
2023-01-13T12:30:02.017Z,95902.75
2023-01-13T12:32:36.397Z,95895.31
2023-01-13T12:35:23.697Z,95889.63
2023-01-13T12:38:02.942Z,95895.81
2023-01-13T12:40:51.379Z,95909.28
2023-01-13T12:43:20.824Z,95900.59
2023-01-13T12:45:48.213Z,95909.47
2023-01-13T12:48:46.058Z,95901.94
2023-01-13T12:51:23.041Z,95900.22
2023-01-13T12:53:52.540Z,95908.03
2023-01-13T12:56:46.847Z,95896.81
2023-01-13T12:59:44.117Z,95898.13
2023-01-13T13:02:30.567Z,95902.78
2023-01-13T13:05:12.605Z,95906.69
2023-01-13T13:07:45.985Z,95887.72
2023-01-13T13:10:23.793Z,95891.41
2023-01-13T13:13:00.111Z,95900.94
2023-01-13T13:15:30.178Z,95901.16
2023-01-13T13:18:20.656Z,95908.66
2023-01-13T13:21:03.580Z,95912.53
2023-01-13T13:23:41.141Z,95908.31
2023-01-13T13:26:21.347Z,95917.19
2023-01-13T13:29:07.897Z,95918.22
2023-01-13T13:32:04.279Z,95914.41
2023-01-13T13:34:44.905Z,95907.53
2023-01-13T13:37:41.857Z,95904.66
2023-01-13T13:40:11.680Z,95908.13
2023-01-13T13:42:44.901Z,95905.28
2023-01-13T13:45:22.929Z,95913.38
2023-01-13T13:47:50.206Z,95916.75
2023-01-13T13:50:20.587Z,95922.22
2023-01-13T13:52:55.935Z,95928.69
2023-01-13T13:55:27.494Z,95929.28
2023-01-13T13:57:59.253Z,95924.75
2023-01-13T14:00:30.918Z,95931.31
2023-01-13T14:03:01.662Z,95935.66
2023-01-13T14:05:31.004Z,95940.44
2023-01-13T14:08:03.981Z,95948.09
2023-01-13T14:10:34.368Z,95951.13
2023-01-13T14:13:14.436Z,95951.84
2023-01-13T14:15:42.118Z,95945.00
2023-01-13T14:18:15.828Z,95944.97
2023-01-13T14:20:43.493Z,95934.78
2023-01-13T14:23:17.869Z,95934.13
2023-01-13T14:25:49.261Z,95931.22
2023-01-13T14:28:29.238Z,95934.47
2023-01-13T14:30:57.760Z,95929.94
2023-01-13T14:33:34.062Z,95933.31
2023-01-13T14:36:14.163Z,95923.69
2023-01-13T14:38:43.434Z,95924.31
2023-01-13T14:41:23.927Z,95931.94
2023-01-13T14:43:57.387Z,95946.59
2023-01-13T14:46:25.598Z,95945.69
2023-01-13T14:49:00.548Z,95960.84
2023-01-13T14:51:30.683Z,95962.69
2023-01-13T14:53:58.352Z,95967.16
2023-01-13T14:56:44.583Z,95967.78
2023-01-13T14:59:36.106Z,95964.34
2023-01-13T15:02:47.173Z,95972.63
2023-01-13T15:05:43.140Z,95976.09
2023-01-13T15:08:27.970Z,95974.00
2023-01-13T15:10:57.962Z,95981.25
2023-01-13T15:13:31.843Z,95983.88
2023-01-13T15:16:03.179Z,95991.75
2023-01-13T15:18:30.720Z,95995.81
2023-01-13T15:20:58.249Z,95996.03
2023-01-13T15:23:25.726Z,95999.44
2023-01-13T15:25:54.592Z,96003.03
2023-01-13T15:28:24.153Z,96009.53
2023-01-13T15:30:53.815Z,96014.25
2023-01-13T15:33:22.879Z,96019.81
2023-01-13T15:35:52.508Z,96019.00
2023-01-13T15:38:21.488Z,96018.81
2023-01-13T15:40:50.547Z,96027.31
2023-01-13T15:43:20.041Z,96033.78
2023-01-13T15:45:47.461Z,96049.13
2023-01-13T15:48:14.774Z,96047.50
2023-01-13T15:50:44.899Z,96035.41
2023-01-13T15:53:14.495Z,96050.53
2023-01-13T15:55:45.639Z,96052.53
2023-01-13T15:58:14.071Z,96060.00
2023-01-13T16:00:41.978Z,96065.44
2023-01-13T16:03:12.777Z,96054.34
2023-01-13T16:05:40.621Z,96053.53
2023-01-13T16:08:15.801Z,96057.53
2023-01-13T16:10:43.765Z,96046.88
2023-01-13T16:13:11.350Z,96041.41
2023-01-13T16:15:44.872Z,96048.66
2023-01-13T16:18:18.452Z,96056.97
2023-01-13T16:20:46.755Z,96055.53
2023-01-13T16:23:15.618Z,96057.47
2023-01-13T16:25:42.763Z,96062.78
2023-01-13T16:28:21.429Z,96064.16
2023-01-13T16:30:49.132Z,96067.63
2023-01-13T16:33:16.795Z,96069.41
2023-01-13T16:36:09.429Z,96074.28
2023-01-13T16:38:32.949Z,96075.91
2023-01-13T16:41:00.133Z,96077.75
2023-01-13T16:43:27.303Z,96092.25
2023-01-13T16:45:54.708Z,96097.91
2023-01-13T16:48:22.002Z,96098.28
2023-01-13T16:50:49.332Z,96104.53
2023-01-13T16:53:16.513Z,96110.94
2023-01-13T16:55:46.135Z,96119.91
2023-01-13T16:58:18.115Z,96141.84
2023-01-13T17:00:45.573Z,96138.50
2023-01-13T17:03:13.502Z,96141.19
2023-01-13T17:05:41.406Z,96140.72
2023-01-13T17:08:13.465Z,96147.16
2023-01-13T17:10:41.098Z,96155.75
2023-01-13T17:13:15.964Z,96149.03
2023-01-13T17:15:44.655Z,96152.03
2023-01-13T17:18:12.323Z,96152.78
2023-01-13T17:20:39.579Z,96157.16
2023-01-13T17:23:07.343Z,96157.63
2023-01-13T17:25:35.417Z,96163.66
2023-01-13T17:28:02.834Z,96166.03
2023-01-13T17:30:31.657Z,96168.94
2023-01-13T17:32:59.119Z,96166.63
2023-01-13T17:35:26.281Z,96157.78
2023-01-13T17:37:54.505Z,96170.84
2023-01-13T17:40:22.122Z,96180.16
2023-01-13T17:42:49.264Z,96176.84
2023-01-13T17:45:16.840Z,96177.25
2023-01-13T17:47:47.340Z,96161.38
2023-01-13T17:50:14.900Z,96163.50
2023-01-13T17:52:42.230Z,96163.06
2023-01-13T17:55:10.014Z,96167.44
2023-01-13T17:57:37.175Z,96166.50
2023-01-13T18:00:06.428Z,96168.56
2023-01-13T18:02:33.722Z,96173.47
2023-01-13T18:05:02.692Z,96171.34
2023-01-13T18:07:29.811Z,96179.47
2023-01-13T18:09:57.450Z,96176.47
2023-01-13T18:12:25.052Z,96185.28
2023-01-13T18:14:52.634Z,96190.06
2023-01-13T18:17:19.945Z,96189.09
2023-01-13T18:19:47.249Z,96198.91
2023-01-13T18:22:16.201Z,96210.25
2023-01-13T18:24:43.976Z,96216.78
2023-01-13T18:27:13.668Z,96213.63
2023-01-13T18:29:41.079Z,96221.22
2023-01-13T18:32:08.803Z,96215.84
2023-01-13T18:34:36.313Z,96223.16
2023-01-13T18:37:04.267Z,96220.41
2023-01-13T18:39:33.110Z,96224.81
2023-01-13T18:42:00.311Z,96229.13
2023-01-13T18:44:27.570Z,96239.94
2023-01-13T18:46:54.966Z,96222.53
2023-01-13T18:49:22.350Z,96227.72
2023-01-13T18:51:50.708Z,96232.97
2023-01-13T18:54:18.116Z,96240.63
2023-01-13T18:56:47.408Z,96242.97
2023-01-13T18:59:15.737Z,96238.72
2023-01-13T19:01:43.574Z,96245.84
2023-01-13T19:04:15.251Z,96252.19
2023-01-13T19:06:44.409Z,96264.47
2023-01-13T19:09:11.877Z,96260.69
2023-01-13T19:11:39.129Z,96265.72
2023-01-13T19:14:08.245Z,96270.34
2023-01-13T19:16:35.708Z,96272.59
2023-01-13T19:19:03.136Z,96279.03
2023-01-13T19:21:30.432Z,96281.28
2023-01-13T19:23:58.644Z,96276.13
2023-01-13T19:26:25.909Z,96282.66
2023-01-13T19:28:53.320Z,96273.59
2023-01-13T19:31:22.121Z,96280.66
2023-01-13T19:33:49.430Z,96275.78
2023-01-13T19:36:17.069Z,96285.06
2023-01-13T19:38:44.216Z,96292.50
2023-01-13T19:41:12.808Z,96305.16
2023-01-13T19:43:40.089Z,96317.84
2023-01-13T19:46:07.502Z,96312.34
2023-01-13T19:48:36.713Z,96317.13
2023-01-13T19:51:04.974Z,96319.94
2023-01-13T19:53:33.392Z,96316.16
2023-01-13T19:56:02.154Z,96303.34
2023-01-13T19:58:29.934Z,96313.91
2023-01-13T20:00:57.338Z,96313.28
2023-01-13T20:03:26.513Z,96323.94
2023-01-13T20:05:55.819Z,96326.91
2023-01-13T20:08:26.754Z,96331.53
2023-01-13T20:10:54.113Z,96327.91
2023-01-13T20:13:21.331Z,96328.00
2023-01-13T20:15:49.107Z,96314.91
2023-01-13T20:18:16.373Z,96305.06
2023-01-13T20:20:43.536Z,96296.56
2023-01-13T20:23:12.172Z,96313.25
2023-01-13T20:25:42.450Z,96314.16
2023-01-13T20:28:09.991Z,96303.59
2023-01-13T20:30:40.333Z,96306.75
2023-01-13T20:33:08.450Z,96310.84
2023-01-13T20:35:36.032Z,96312.81
2023-01-13T20:38:03.509Z,96319.13
2023-01-13T20:40:39.073Z,96329.91
2023-01-13T20:43:06.940Z,96323.03
2023-01-13T20:45:34.406Z,96335.34
2023-01-13T20:48:01.587Z,96340.00
2023-01-13T20:50:28.933Z,96327.53
2023-01-13T20:52:56.253Z,96323.44
2023-01-13T20:55:23.760Z,96325.66
2023-01-13T20:57:52.493Z,96322.47
2023-01-13T21:00:20.674Z,96324.47
2023-01-13T21:02:47.825Z,96333.88
2023-01-13T21:05:15.671Z,96329.78
2023-01-13T21:07:43.033Z,96334.00
2023-01-13T21:10:11.071Z,96338.38
2023-01-13T21:12:38.273Z,96345.63
2023-01-13T21:15:10.446Z,96344.81
2023-01-13T21:17:37.645Z,96340.19
2023-01-13T21:20:07.746Z,96343.28
2023-01-13T21:22:36.762Z,96337.75
2023-01-13T21:25:06.318Z,96334.50
2023-01-13T21:27:33.597Z,96329.97
2023-01-13T21:30:00.864Z,96325.47
2023-01-13T21:32:29.522Z,96332.06
2023-01-13T21:34:56.919Z,96333.88
2023-01-13T21:37:24.354Z,96330.16
2023-01-13T21:39:53.680Z,96325.31
2023-01-13T21:42:22.318Z,96317.44
2023-01-13T21:44:49.616Z,96325.03
2023-01-13T21:47:20.761Z,96326.91
2023-01-13T21:49:49.795Z,96324.03
2023-01-13T21:52:17.268Z,96324.28
2023-01-13T21:54:44.655Z,96323.84
2023-01-13T21:57:11.976Z,96329.09
2023-01-13T21:59:39.674Z,96332.53
2023-01-13T22:02:24.041Z,96336.50
2023-01-13T22:04:54.914Z,96340.56
2023-01-13T22:07:22.284Z,96343.34
2023-01-13T22:09:49.614Z,96351.56
2023-01-13T22:12:16.937Z,96348.66
2023-01-13T22:14:44.350Z,96352.56
2023-01-13T22:17:14.520Z,96352.56
2023-01-13T22:19:41.957Z,96346.69
2023-01-13T22:22:10.815Z,96363.03
2023-01-13T22:24:38.094Z,96357.97
2023-01-13T22:27:05.457Z,96362.41
2023-01-13T22:29:33.019Z,96356.38
2023-01-13T22:32:00.339Z,96352.28
2023-01-13T22:34:27.725Z,96337.94
2023-01-13T22:36:55.180Z,96343.69
2023-01-13T22:39:24.274Z,96346.88
2023-01-13T22:41:51.897Z,96350.00
2023-01-13T22:44:19.915Z,96350.84
2023-01-13T22:46:47.975Z,96355.59
2023-01-13T22:49:16.939Z,96342.88
2023-01-13T22:51:45.961Z,96347.00
2023-01-13T22:54:13.960Z,96349.63
2023-01-13T22:56:42.696Z,96342.44
2023-01-13T22:59:12.954Z,96353.25
2023-01-13T23:01:40.936Z,96348.03
2023-01-13T23:04:11.465Z,96340.19
2023-01-13T23:06:38.979Z,96350.72
2023-01-13T23:09:07.139Z,96351.34
2023-01-13T23:11:34.434Z,96343.63
2023-01-13T23:14:05.916Z,96345.72
2023-01-13T23:16:35.883Z,96345.22
2023-01-13T23:19:04.340Z,96339.50
2023-01-13T23:21:34.457Z,96338.84
2023-01-13T23:24:02.157Z,96341.28
2023-01-13T23:26:31.273Z,96328.72
2023-01-13T23:28:59.755Z,96326.91
2023-01-13T23:31:28.996Z,96314.63
2023-01-13T23:33:56.309Z,96320.56
2023-01-13T23:36:26.476Z,96326.19
2023-01-13T23:38:53.743Z,96318.41
2023-01-13T23:41:23.360Z,96324.28
2023-01-13T23:43:51.923Z,96325.94
2023-01-13T23:46:20.667Z,96320.91
2023-01-13T23:48:50.635Z,96315.03
2023-01-13T23:51:19.095Z,96317.63
2023-01-13T23:53:48.268Z,96315.22
2023-01-13T23:56:17.884Z,96304.28
2023-01-13T23:58:45.584Z,96315.28
